Time,TemperatureF,DewpointF,PressureIn,WindDirection,WindDirectionDegrees,WindSpeedMPH,WindSpeedGustMPH,Humidity,HourlyPrecipIn,Conditions,Clouds,dailyrainin,SoftwareType,DateUTC
2013-02-13 00:00:00,49.8,38.8,30.04,West,270,0.0,0.0,66,0.00,,,0.00,meteohub,2013-02-13 05:00:00,
2013-02-13 00:01:00,49.8,38.8,30.04,West,270,0.0,0.0,66,0.00,,,0.00,meteohub,2013-02-13 05:01:00,
2013-02-13 00:06:00,49.8,38.8,30.05,West,270,0.0,0.0,66,0.00,,,0.00,meteohub,2013-02-13 05:06:00,
2013-02-13 00:11:00,49.8,38.8,30.04,West,270,0.0,0.0,66,0.00,,,0.00,meteohub,2013-02-13 05:11:00,
2013-02-13 00:16:00,49.8,38.5,30.04,West,270,0.0,0.0,65,0.00,,,0.00,meteohub,2013-02-13 05:16:00,
2013-02-13 00:21:00,50.0,38.3,30.04,West,270,0.0,0.0,64,0.00,,,0.00,meteohub,2013-02-13 05:21:00,
2013-02-13 00:26:00,49.8,38.8,30.05,West,270,0.0,0.0,66,0.00,,,0.00,meteohub,2013-02-13 05:26:00,
2013-02-13 00:31:00,49.8,38.5,30.04,West,270,0.0,0.0,65,0.00,,,0.00,meteohub,2013-02-13 05:31:00,
2013-02-13 00:36:00,49.8,38.5,30.04,West,270,0.0,0.0,65,0.00,,,0.00,meteohub,2013-02-13 05:36:00,
2013-02-13 00:41:00,49.8,38.8,30.04,West,270,0.0,0.0,66,0.00,,,0.00,meteohub,2013-02-13 05:41:00,
2013-02-13 00:47:00,49.8,38.8,30.02,West,270,0.0,0.0,66,0.00,,,0.00,meteohub,2013-02-13 05:47:00,
2013-02-13 00:52:00,49.6,39.2,30.02,West,270,0.0,0.0,67,0.00,,,0.00,meteohub,2013-02-13 05:52:00,
2013-02-13 00:57:00,49.3,39.6,30.02,West,270,0.0,0.0,69,0.00,,,0.00,meteohub,2013-02-13 05:57:00,
2013-02-13 01:02:00,49.1,39.4,30.01,West,270,0.0,0.0,69,0.00,,,0.00,meteohub,2013-02-13 06:02:00,
2013-02-13 01:07:00,48.7,39.4,29.99,West,270,0.0,0.0,70,0.00,,,0.00,meteohub,2013-02-13 06:07:00,
2013-02-13 01:12:00,48.7,39.0,30.00,West,270,0.0,0.0,69,0.00,,,0.00,meteohub,2013-02-13 06:12:00,
2013-02-13 01:17:00,48.7,39.4,30.00,West,270,0.0,0.0,70,0.00,,,0.00,meteohub,2013-02-13 06:17:00,
2013-02-13 01:22:00,48.7,38.7,30.00,West,270,0.0,0.0,68,0.00,,,0.00,meteohub,2013-02-13 06:22:00,
2013-02-13 01:28:00,48.9,38.1,29.99,West,270,0.0,0.0,66,0.00,,,0.00,meteohub,2013-02-13 06:28:00,
2013-02-13 01:33:00,49.1,38.3,29.99,West,270,0.0,0.0,66,0.00,,,0.00,meteohub,2013-02-13 06:33:00,
2013-02-13 01:38:00,48.9,38.5,30.00,West,270,0.0,0.0,67,0.00,,,0.00,meteohub,2013-02-13 06:38:00,
2013-02-13 01:43:00,48.7,38.7,30.00,West,270,0.0,0.0,68,0.00,,,0.00,meteohub,2013-02-13 06:43:00,
2013-02-13 01:48:00,48.6,38.8,29.99,West,270,0.0,0.0,69,0.00,,,0.00,meteohub,2013-02-13 06:48:00,
2013-02-13 01:53:00,48.4,39.4,29.99,West,270,0.0,0.0,71,0.00,,,0.00,meteohub,2013-02-13 06:53:00,
2013-02-13 01:58:00,48.2,39.2,29.99,West,270,0.0,0.0,71,0.00,,,0.00,meteohub,2013-02-13 06:58:00,
2013-02-13 02:04:00,48.0,40.1,29.98,West,270,0.0,0.0,74,0.00,,,0.00,meteohub,2013-02-13 07:04:00,
2013-02-13 02:09:00,48.0,40.5,29.96,West,270,0.0,0.0,75,0.00,,,0.00,meteohub,2013-02-13 07:09:00,
2013-02-13 02:14:00,47.8,40.3,29.96,West,270,0.0,0.0,75,0.00,,,0.00,meteohub,2013-02-13 07:14:00,
2013-02-13 02:19:00,47.7,40.1,29.96,West,270,0.0,0.0,75,0.00,,,0.00,meteohub,2013-02-13 07:19:00,
2013-02-13 02:24:00,47.7,40.5,29.96,West,270,0.0,0.0,76,0.00,,,0.00,meteohub,2013-02-13 07:24:00,
2013-02-13 02:29:00,47.7,40.8,29.96,West,270,0.0,0.0,77,0.00,,,0.00,meteohub,2013-02-13 07:29:00,
2013-02-13 02:34:00,47.5,40.6,29.96,West,270,0.0,0.0,77,0.00,,,0.00,meteohub,2013-02-13 07:34:00,
2013-02-13 02:39:00,47.7,40.5,29.96,West,270,0.0,0.0,76,0.00,,,0.00,meteohub,2013-02-13 07:39:00,
2013-02-13 02:44:00,47.7,40.1,29.96,West,270,0.0,0.0,75,0.00,,,0.00,meteohub,2013-02-13 07:44:00,
2013-02-13 02:49:00,48.0,40.5,29.95,West,270,0.0,0.0,75,0.00,,,0.00,meteohub,2013-02-13 07:49:00,
2013-02-13 02:54:00,48.0,40.5,29.96,West,270,0.0,0.0,75,0.00,,,0.00,meteohub,2013-02-13 07:54:00,
2013-02-13 02:59:00,48.0,40.5,29.96,West,270,0.0,0.0,75,0.00,,,0.00,meteohub,2013-02-13 07:59:00,
2013-02-13 03:05:00,48.0,40.5,29.97,West,270,0.0,0.0,75,0.00,,,0.00,meteohub,2013-02-13 08:05:00,
2013-02-13 03:10:00,48.0,40.5,29.96,West,270,0.0,0.0,75,0.00,,,0.00,meteohub,2013-02-13 08:10:00,
2013-02-13 03:15:00,48.0,40.5,29.96,West,270,0.0,0.0,75,0.00,,,0.00,meteohub,2013-02-13 08:15:00,
2013-02-13 03:20:00,48.0,40.5,29.96,West,270,0.0,0.0,75,0.00,,,0.00,meteohub,2013-02-13 08:20:00,
2013-02-13 03:25:00,47.7,40.5,29.96,West,270,0.0,0.0,76,0.00,,,0.00,meteohub,2013-02-13 08:25:00,
2013-02-13 03:30:00,47.3,40.8,29.95,West,270,0.0,0.0,78,0.00,,,0.00,meteohub,2013-02-13 08:30:00,
2013-02-13 03:36:00,46.9,41.2,29.95,West,270,0.0,0.0,80,0.01,,,0.01,meteohub,2013-02-13 08:36:00,
2013-02-13 03:41:00,46.8,41.2,29.96,West,270,0.0,0.0,81,0.01,,,0.01,meteohub,2013-02-13 08:41:00,